Time;durP1;ratioP1;P1;durP2;ratioP2;P2;SDS_P1;SDS_P2;PMS_P1;PMS_P2;Temp;Humidity;BMP_temperature;BMP_pressure;BME280_temperature;BME280_humidity;BME280_pressure;Samples;Min_cycle;Max_cycle;Signal;HPM_P1;HPM_P2
2022/05/30 00:00:39;;;;;;;2.43;2.00;;;7.10;99.90;7.80;96210.00;;;;5040314;28;20224;-83
2022/05/30 00:03:28;;;;;;;1.40;1.30;;;6.90;99.90;7.90;96218.00;;;;5038120;28;20547;-83
2022/05/30 00:06:20;;;;;;;1.93;1.53;;;7.20;99.90;7.90;96230.00;;;;5036125;28;20220;-83
2022/05/30 00:09:13;;;;;;;2.13;1.93;;;7.00;99.90;7.90;96227.00;;;;5038043;28;20552;-82
2022/05/30 00:12:02;;;;;;;2.27;2.17;;;7.00;99.90;7.80;96222.00;;;;5037702;28;20233;-82
2022/05/30 00:14:51;;;;;;;1.60;1.50;;;6.90;99.90;7.30;96209.00;;;;5039518;28;20209;-83
2022/05/30 00:17:41;;;;;;;1.70;1.60;;;6.90;99.90;7.50;96218.00;;;;5039449;28;20201;-83
2022/05/30 00:20:31;;;;;;;4.00;2.10;;;6.80;99.90;7.20;96210.00;;;;5039679;28;20201;-83
2022/05/30 00:23:19;;;;;;;2.70;1.67;;;6.90;99.90;7.30;96217.00;;;;5042348;28;20203;-83
2022/05/30 00:26:10;;;;;;;1.80;1.70;;;6.70;99.90;7.30;96206.00;;;;5037155;28;20212;-82
2022/05/30 00:28:59;;;;;;;1.80;1.70;;;6.70;99.90;7.20;96203.00;;;;5038048;28;20213;-82
2022/05/30 00:31:48;;;;;;;2.33;1.73;;;6.60;99.90;7.20;96214.00;;;;5034050;28;20232;-83
2022/05/30 00:34:38;;;;;;;1.87;1.77;;;6.80;99.90;7.20;96220.00;;;;5024418;28;20235;-82
2022/05/30 00:37:27;;;;;;;3.67;1.57;;;6.40;99.90;7.30;96222.00;;;;5036528;28;20201;-82
2022/05/30 00:40:16;;;;;;;3.43;1.80;;;6.70;99.90;7.20;96227.00;;;;5036727;28;20213;-83
2022/05/30 00:43:26;;;;;;;2.00;1.90;;;6.60;99.90;7.20;96209.00;;;;5034754;28;20212;-82
2022/05/30 00:46:17;;;;;;;1.70;1.60;;;6.60;99.90;7.30;96201.00;;;;5034013;28;20273;-82
2022/05/30 00:49:09;;;;;;;1.60;1.50;;;6.60;99.90;7.20;96206.00;;;;5034950;28;20216;-82
2022/05/30 00:52:02;;;;;;;1.77;1.67;;;6.50;99.90;7.20;96204.00;;;;5034499;28;20232;-83
2022/05/30 00:54:55;;;;;;;4.50;2.23;;;6.60;99.90;7.20;96210.00;;;;5034403;28;20202;-82
2022/05/30 00:57:47;;;;;;;1.80;1.70;;;6.60;99.90;6.90;96212.00;;;;5035789;28;20200;-83
2022/05/30 01:00:36;;;;;;;2.07;1.97;;;6.30;99.90;7.00;96211.00;;;;5037326;28;20205;-83
2022/05/30 01:06:32;;;;;;;1.80;1.70;;;6.30;99.90;7.00;96194.00;;;;5035378;28;20208;-83
2022/05/30 01:09:29;;;;;;;3.53;1.53;;;6.30;99.90;7.00;96215.00;;;;5036296;28;20205;-84
2022/05/30 01:12:18;;;;;;;1.60;1.50;;;6.20;99.90;6.90;96201.00;;;;5039696;28;20229;-83
2022/05/30 01:15:11;;;;;;;1.60;1.50;;;6.30;99.90;6.80;96211.00;;;;5029340;28;20209;-83
2022/05/30 01:18:05;;;;;;;1.93;1.83;;;6.10;99.90;6.60;96214.00;;;;5038488;28;20679;-83
2022/05/30 01:21:15;;;;;;;2.20;2.00;;;6.20;99.90;6.80;96205.00;;;;5036545;28;20702;-85
2022/05/30 01:24:26;;;;;;;2.20;2.00;;;6.20;99.90;6.90;96199.00;;;;5046425;28;20192;-84
2022/05/30 01:27:33;;;;;;;1.73;1.63;;;6.30;99.90;6.60;96200.00;;;;5038358;28;20202;-84
2022/05/30 01:30:23;;;;;;;2.37;1.10;;;6.00;99.90;6.60;96194.00;;;;5040038;28;20281;-83
2022/05/30 01:33:12;;;;;;;1.50;1.40;;;6.20;99.90;6.60;96199.00;;;;5040455;28;20726;-82
2022/05/30 01:36:01;;;;;;;1.83;1.67;;;5.90;99.90;6.40;96189.00;;;;5045911;28;20228;-83
2022/05/30 01:38:50;;;;;;;2.10;1.90;;;6.00;99.90;6.40;96200.00;;;;5044914;28;20212;-83
2022/05/30 01:41:39;;;;;;;6.33;2.13;;;5.90;99.90;6.50;96196.00;;;;5040715;28;20229;-83
2022/05/30 01:44:28;;;;;;;1.67;1.57;;;5.80;99.90;6.50;96197.00;;;;5041431;28;20213;-83
2022/05/30 01:47:18;;;;;;;1.83;1.57;;;6.00;99.90;6.60;96209.00;;;;5038843;28;20217;-82
2022/05/30 01:50:08;;;;;;;2.00;1.90;;;5.80;99.90;6.50;96204.00;;;;5042731;28;20228;-84
2022/05/30 01:52:57;;;;;;;1.50;1.40;;;5.90;99.90;6.30;96212.00;;;;5042760;28;20235;-83
2022/05/30 01:55:45;;;;;;;1.80;1.70;;;5.80;99.90;6.40;96207.00;;;;5039250;28;20209;-83
2022/05/30 01:58:35;;;;;;;1.60;1.47;;;6.10;99.90;6.30;96206.00;;;;5044672;28;20209;-82
2022/05/30 02:01:26;;;;;;;1.70;1.60;;;7.50;99.90;6.40;96197.00;;;;5041856;28;20229;-83
2022/05/30 02:04:18;;;;;;;1.60;1.50;;;6.00;99.90;6.40;96180.00;;;;5039801;28;20206;-83
2022/05/30 02:07:07;;;;;;;3.10;1.73;;;5.70;99.90;6.40;96183.00;;;;5041349;28;20206;-82
2022/05/30 02:09:56;;;;;;;1.87;1.70;;;5.00;99.90;6.40;96184.00;;;;5046088;28;20201;-83
2022/05/30 02:12:45;;;;;;;2.17;1.97;;;5.80;99.90;6.40;96184.00;;;;5041209;28;20232;-83
2022/05/30 02:17:00;;;;;;;4.23;1.80;;;5.50;99.90;6.30;96191.00;;;;5044993;28;20197;-83
2022/05/30 02:18:43;;;;;;;4.50;1.53;;;5.60;99.90;6.30;96188.00;;;;5034054;28;20500;-83
2022/05/30 02:21:34;;;;;;;3.43;2.13;;;5.50;99.90;6.30;96188.00;;;;5026811;28;20236;-83
2022/05/30 02:24:23;;;;;;;1.97;1.87;;;5.90;99.90;6.30;96180.00;;;;5051261;28;20197;-83
2022/05/30 02:27:14;;;;;;;2.33;2.00;;;5.80;99.90;6.20;96187.00;;;;5042196;28;20213;-83
2022/05/30 02:30:03;;;;;;;2.23;1.53;;;5.50;99.90;5.70;96188.00;;;;5043318;28;20201;-83
2022/05/30 02:36:38;;;;;;;1.73;1.63;;;5.60;99.90;5.80;96188.00;;;;5042697;28;20237;-83
2022/05/30 02:39:09;;;;;;;1.60;1.50;;;5.30;99.90;5.90;96183.00;;;;5041961;28;20220;-83
2022/05/30 02:41:58;;;;;;;7.87;2.10;;;5.20;99.90;5.80;96180.00;;;;5041482;28;20222;-83
2022/05/30 02:44:48;;;;;;;4.83;1.50;;;5.30;99.90;5.70;96171.00;;;;5042110;28;20224;-83
2022/05/30 02:47:37;;;;;;;1.73;1.63;;;5.30;99.90;5.70;96168.00;;;;5042141;28;20213;-83
2022/05/30 02:50:25;;;;;;;1.30;1.20;;;5.30;99.90;5.70;96176.00;;;;5039523;28;20216;-83
2022/05/30 02:53:15;;;;;;;1.43;1.33;;;5.10;99.90;5.40;96170.00;;;;5042421;28;20221;-84
2022/05/30 02:56:06;;;;;;;1.73;1.63;;;5.70;99.90;5.60;96188.00;;;;5043649;28;20205;-83
2022/05/30 02:58:55;;;;;;;2.00;1.43;;;5.20;99.90;5.60;96183.00;;;;5040205;28;20229;-83
2022/05/30 03:01:44;;;;;;;1.27;1.17;;;5.20;99.90;5.60;96189.00;;;;5037506;28;20229;-82
2022/05/30 03:04:33;;;;;;;1.50;1.40;;;5.20;99.90;5.70;96182.00;;;;5035377;28;20201;-83
2022/05/30 03:07:22;;;;;;;2.43;1.90;;;5.10;99.90;5.90;96190.00;;;;5036797;28;20288;-83
2022/05/30 03:10:11;;;;;;;2.13;1.93;;;5.20;99.90;6.00;96192.00;;;;5037813;28;20210;-83
2022/05/30 03:13:02;;;;;;;1.67;1.50;;;5.20;99.90;6.10;96197.00;;;;5033863;28;20225;-83
2022/05/30 03:15:50;;;;;;;6.30;2.10;;;5.40;99.90;6.00;96200.00;;;;5035680;28;20606;-83
2022/05/30 03:18:39;;;;;;;2.33;1.40;;;5.20;99.90;5.60;96199.00;;;;5032301;28;20212;-83
2022/05/30 03:21:28;;;;;;;1.87;1.57;;;4.80;99.90;5.80;96208.00;;;;5023740;28;20225;-83
2022/05/30 03:24:17;;;;;;;1.97;1.33;;;5.20;99.90;5.60;96222.00;;;;5047299;28;20216;-83
2022/05/30 03:27:06;;;;;;;1.63;1.30;;;5.10;99.90;5.70;96231.00;;;;5037660;28;20205;-83
2022/05/30 03:29:57;;;;;;;2.03;1.63;;;5.10;99.90;5.90;96237.00;;;;5021681;28;20220;-83
2022/05/30 03:32:45;;;;;;;4.67;1.50;;;5.30;99.90;5.90;96239.00;;;;5032060;28;20221;-83
2022/05/30 03:35:36;;;;;;;1.67;1.57;;;5.20;99.90;5.90;96232.00;;;;5041287;28;20210;-83
2022/05/30 03:38:25;;;;;;;2.67;1.77;;;4.70;99.90;6.10;96245.00;;;;5035112;28;20205;-83
2022/05/30 03:41:13;;;;;;;3.80;1.73;;;5.10;99.90;6.20;96244.00;;;;5035848;28;20224;-83
2022/05/30 03:44:02;;;;;;;1.60;1.50;;;5.40;99.90;5.90;96244.00;;;;5034939;28;20208;-83
2022/05/30 03:46:52;;;;;;;2.50;1.80;;;5.60;99.90;6.10;96246.00;;;;5035312;28;20212;-83
2022/05/30 03:49:41;;;;;;;1.20;1.10;;;5.40;99.90;6.40;96247.00;;;;5033547;28;20205;-83
2022/05/30 03:52:30;;;;;;;1.60;1.50;;;5.40;99.90;6.60;96244.00;;;;5030954;28;20236;-83
2022/05/30 03:55:22;;;;;;;2.87;2.27;;;5.90;99.90;6.60;96248.00;;;;5034538;28;20205;-83
2022/05/30 03:58:13;;;;;;;2.63;2.20;;;5.70;99.90;6.70;96248.00;;;;5034794;28;20201;-83
2022/05/30 04:01:05;;;;;;;1.73;1.60;;;5.90;99.90;6.50;96248.00;;;;5036258;28;20232;-83
2022/05/30 04:03:55;;;;;;;1.80;1.70;;;5.80;99.90;6.60;96243.00;;;;5036503;28;20209;-83
2022/05/30 04:06:44;;;;;;;2.00;1.90;;;5.80;99.90;6.60;96249.00;;;;5028403;28;20201;-84
2022/05/30 04:09:33;;;;;;;1.70;1.00;;;5.80;99.90;6.50;96263.00;;;;5034822;28;20209;-84
2022/05/30 04:12:22;;;;;;;2.13;1.57;;;5.80;99.90;6.70;96259.00;;;;5031137;28;20229;-83
2022/05/30 04:15:18;;;;;;;2.00;1.80;;;5.80;99.90;6.50;96264.00;;;;5030583;28;20228;-84
2022/05/30 04:18:08;;;;;;;1.63;1.53;;;6.00;99.90;6.50;96272.00;;;;5039290;28;20205;-85
2022/05/30 04:20:58;;;;;;;1.77;1.53;;;6.30;99.90;6.50;96282.00;;;;5031288;28;20574;-82
2022/05/30 04:23:47;;;;;;;1.37;1.27;;;6.00;99.90;6.50;96281.00;;;;5038031;28;20784;-83
2022/05/30 04:26:37;;;;;;;1.63;1.40;;;6.00;99.90;6.50;96275.00;;;;5035017;28;20683;-83
2022/05/30 04:29:26;;;;;;;4.57;1.73;;;6.20;99.90;6.70;96283.00;;;;5037754;28;20205;-84
2022/05/30 04:35:07;;;;;;;1.60;1.50;;;6.20;99.90;7.00;96286.00;;;;4971368;28;20262;-86
2022/05/30 04:37:57;;;;;;;2.03;1.60;;;6.10;99.90;7.20;96279.00;;;;4967759;28;20211;-87
2022/05/30 04:40:46;;;;;;;1.53;1.43;;;6.30;99.90;7.60;96294.00;;;;4976681;28;20238;-87
2022/05/30 04:43:35;;;;;;;2.17;1.97;;;6.20;99.90;7.80;96285.00;;;;4990746;28;20206;-86
2022/05/30 04:46:24;;;;;;;2.63;1.97;;;6.40;99.90;7.90;96291.00;;;;4989973;28;20395;-85
2022/05/30 04:49:13;;;;;;;2.53;2.33;;;6.40;99.90;8.00;96275.00;;;;4990305;28;20218;-86
2022/05/30 04:52:02;;;;;;;2.50;2.20;;;6.80;99.90;7.90;96277.00;;;;4984915;28;20226;-86
2022/05/30 04:54:52;;;;;;;1.70;1.60;;;6.70;99.90;7.80;96278.00;;;;4983061;28;20230;-85
2022/05/30 04:57:42;;;;;;;1.60;1.50;;;7.00;99.90;7.80;96293.00;;;;4989823;28;20211;-85
2022/05/30 05:00:31;;;;;;;2.37;1.50;;;6.80;99.90;7.60;96293.00;;;;4989299;28;20234;-86
2022/05/30 05:03:20;;;;;;;1.87;1.70;;;6.80;99.90;7.70;96297.00;;;;4982047;28;20202;-85
2022/05/30 05:06:14;;;;;;;2.17;1.87;;;7.00;99.90;7.70;96296.00;;;;4985210;28;20611;-85
2022/05/30 05:09:24;;;;;;;2.03;1.93;;;6.80;99.90;7.60;96303.00;;;;4982440;28;20203;-86
2022/05/30 05:12:14;;;;;;;3.73;1.80;;;6.80;99.90;8.00;96298.00;;;;4990062;28;20229;-86
2022/05/30 05:15:04;;;;;;;1.90;1.50;;;7.10;99.90;8.10;96302.00;;;;4989835;28;20242;-86
2022/05/30 05:17:54;;;;;;;1.67;1.57;;;7.00;99.90;7.80;96298.00;;;;4988598;28;20199;-85
2022/05/30 05:20:43;;;;;;;2.57;2.37;;;7.10;99.90;8.10;96293.00;;;;4982569;28;20238;-86
2022/05/30 05:23:32;;;;;;;3.90;2.30;;;7.30;99.90;8.00;96306.00;;;;4988811;28;20203;-85
2022/05/30 05:26:22;;;;;;;3.47;3.17;;;7.20;99.90;8.40;96288.00;;;;4988856;28;20695;-85
2022/05/30 05:29:12;;;;;;;6.37;3.23;;;7.50;99.90;8.70;96295.00;;;;4987482;28;20575;-85
2022/05/30 05:32:04;;;;;;;4.03;2.70;;;8.40;99.90;8.70;96290.00;;;;4983576;28;20214;-86
2022/05/30 05:34:52;;;;;;;3.53;3.23;;;7.70;99.90;8.80;96303.00;;;;4984430;28;20266;-86
2022/05/30 05:37:41;;;;;;;4.33;3.57;;;7.90;99.90;9.00;96307.00;;;;4988876;28;20237;-85
2022/05/30 05:40:30;;;;;;;5.93;4.13;;;8.00;99.90;9.10;96311.00;;;;5000880;28;20207;-86
2022/05/30 05:43:19;;;;;;;4.07;3.70;;;7.90;99.90;9.20;96298.00;;;;5001228;28;20207;-86
2022/05/30 05:46:15;;;;;;;7.17;3.70;;;8.10;99.90;9.30;96296.00;;;;4990004;28;21159;-85
2022/05/30 05:49:06;;;;;;;3.33;3.07;;;8.10;99.90;9.50;96305.00;;;;4988738;28;20198;-85
2022/05/30 05:51:55;;;;;;;6.30;3.63;;;8.50;99.90;9.90;96310.00;;;;4988542;28;20226;-86
2022/05/30 05:54:44;;;;;;;5.47;3.17;;;8.40;99.90;9.90;96301.00;;;;4987080;28;20707;-87
2022/05/30 05:57:33;;;;;;;5.00;3.53;;;8.50;99.90;9.90;96306.00;;;;4979274;28;20217;-86
2022/05/30 06:00:22;;;;;;;4.60;3.63;;;8.90;99.90;9.90;96305.00;;;;4990243;28;20211;-85
2022/05/30 06:03:13;;;;;;;3.17;2.87;;;8.80;99.90;10.20;96305.00;;;;4989613;28;20214;-86
2022/05/30 06:06:03;;;;;;;3.70;3.40;;;8.90;99.90;10.40;96301.00;;;;4989187;28;20210;-86
2022/05/30 06:08:53;;;;;;;6.07;4.30;;;9.10;99.90;10.40;96307.00;;;;4984203;28;20571;-86
2022/05/30 06:11:43;;;;;;;3.20;3.00;;;9.50;99.90;10.40;96301.00;;;;4990724;28;20226;-86
2022/05/30 06:14:31;;;;;;;3.37;3.03;;;9.30;99.90;10.50;96309.00;;;;4990890;28;20229;-86
2022/05/30 06:17:20;;;;;;;4.17;3.37;;;9.60;99.90;10.60;96307.00;;;;4991132;28;20202;-86
2022/05/30 06:20:14;;;;;;;7.80;3.63;;;9.70;99.90;10.70;96307.00;;;;4989449;28;20234;-86
2022/05/30 06:23:03;;;;;;;3.20;2.90;;;9.60;99.90;10.90;96317.00;;;;4990608;28;20206;-86
2022/05/30 06:25:52;;;;;;;3.93;3.00;;;9.90;99.90;10.90;96316.00;;;;4990516;28;20209;-86
2022/05/30 06:28:42;;;;;;;4.53;2.60;;;10.00;99.90;11.40;96315.00;;;;4990734;28;20207;-87
2022/05/30 06:31:33;;;;;;;3.17;2.87;;;9.90;99.90;11.80;96322.00;;;;4991763;28;20226;-86
2022/05/30 06:34:22;;;;;;;5.67;4.37;;;10.30;99.90;12.00;96319.00;;;;4992397;28;20226;-87
2022/05/30 06:37:12;;;;;;;4.90;4.47;;;10.30;99.90;12.30;96325.00;;;;4991091;28;20203;-86
2022/05/30 06:40:01;;;;;;;3.70;3.00;;;10.70;99.90;12.40;96322.00;;;;4992892;28;20210;-87
2022/05/30 06:42:50;;;;;;;4.37;3.00;;;11.10;99.90;12.30;96320.00;;;;4991242;28;20705;-87
2022/05/30 06:45:39;;;;;;;3.93;3.10;;;11.10;99.90;12.80;96309.00;;;;4994134;28;20232;-87
2022/05/30 06:48:27;;;;;;;5.00;3.47;;;11.30;99.90;13.00;96317.00;;;;4992382;28;20206;-87
2022/05/30 06:51:19;;;;;;;3.63;3.33;;;11.40;99.90;13.30;96312.00;;;;4991664;28;20233;-86
2022/05/30 06:54:09;;;;;;;3.90;3.60;;;11.60;99.90;13.60;96313.00;;;;4990678;28;20218;-86
2022/05/30 07:00:06;;;;;;;4.57;3.40;;;12.10;99.90;14.10;96322.00;;;;4988302;28;20241;-87
2022/05/30 07:02:55;;;;;;;5.10;3.90;;;12.40;99.90;14.00;96322.00;;;;4987250;28;20662;-87
2022/05/30 07:05:46;;;;;;;5.80;3.30;;;12.60;99.90;14.20;96317.00;;;;4991119;28;20577;-86
2022/05/30 07:08:35;;;;;;;3.97;3.57;;;13.10;99.90;14.10;96330.00;;;;4988631;28;20206;-86
2022/05/30 07:11:26;;;;;;;6.87;3.63;;;12.90;99.90;14.30;96326.00;;;;4991134;28;20226;-85
2022/05/30 07:14:16;;;;;;;3.60;3.30;;;13.00;99.90;14.50;96329.00;;;;4990518;28;20685;-86
2022/05/30 07:17:07;;;;;;;3.47;3.17;;;12.90;99.90;14.70;96321.00;;;;4985593;28;20611;-86
2022/05/30 07:19:58;;;;;;;4.50;4.10;;;13.10;99.90;14.80;96315.00;;;;4991626;28;20687;-86
2022/05/30 07:22:47;;;;;;;4.37;3.57;;;13.30;99.90;14.90;96331.00;;;;4987839;28;20711;-86
2022/05/30 07:25:38;;;;;;;7.40;3.47;;;13.40;99.90;15.00;96332.00;;;;4990775;28;20203;-86
2022/05/30 07:28:30;;;;;;;3.73;3.43;;;13.50;99.90;14.50;96322.00;;;;4989058;28;20462;-86
2022/05/30 07:31:22;;;;;;;3.27;2.97;;;14.20;99.90;15.00;96352.00;;;;4991599;28;20833;-84
2022/05/30 07:34:11;;;;;;;3.30;3.10;;;13.50;99.90;15.00;96358.00;;;;4989997;28;20610;-86
2022/05/30 07:37:00;;;;;;;3.93;3.60;;;13.60;99.90;15.00;96366.00;;;;4990340;28;20285;-85
2022/05/30 07:39:49;;;;;;;4.30;2.70;;;13.50;99.90;15.10;96365.00;;;;4986884;28;20229;-85
2022/05/30 07:42:38;;;;;;;2.90;2.40;;;13.60;99.90;15.10;96369.00;;;;4989672;28;20563;-86
2022/05/30 07:45:28;;;;;;;2.50;2.03;;;13.50;99.90;14.60;96369.00;;;;4990404;28;20210;-85
2022/05/30 07:48:19;;;;;;;3.13;2.50;;;13.50;99.90;14.00;96361.00;;;;4987785;28;20287;-86
2022/05/30 07:51:10;;;;;;;2.47;2.27;;;13.30;99.90;13.70;96360.00;;;;4989282;28;20231;-86
2022/05/30 07:53:59;;;;;;;4.60;4.20;;;13.10;99.90;13.60;96354.00;;;;4993345;28;20214;-86
2022/05/30 07:56:48;;;;;;;4.67;2.67;;;12.90;99.90;13.50;96356.00;;;;4991467;28;20207;-86
2022/05/30 07:59:37;;;;;;;3.97;2.60;;;12.60;99.90;13.60;96347.00;;;;4985483;28;20206;-86
2022/05/30 08:02:27;;;;;;;3.30;2.50;;;12.50;99.90;13.70;96352.00;;;;4990603;28;20237;-85
2022/05/30 08:05:19;;;;;;;2.80;2.47;;;13.10;99.90;13.70;96341.00;;;;4991534;28;20673;-85
2022/05/30 08:08:08;;;;;;;3.07;2.77;;;12.50;99.90;13.70;96342.00;;;;4989473;28;20203;-85
2022/05/30 08:10:57;;;;;;;3.10;2.80;;;12.40;99.90;13.70;96350.00;;;;4990012;28;20219;-85
2022/05/30 08:13:47;;;;;;;3.97;2.80;;;10.70;99.90;13.70;96352.00;;;;4991321;28;20198;-85
2022/05/30 08:16:37;;;;;;;2.77;2.57;;;12.30;99.90;13.80;96352.00;;;;4987979;28;20715;-85
2022/05/30 08:19:43;;;;;;;2.93;2.73;;;12.30;99.90;13.80;96360.00;;;;4989048;28;20233;-86
2022/05/30 08:22:37;;;;;;;5.00;3.10;;;13.20;99.90;13.80;96353.00;;;;4989587;28;20671;-85
2022/05/30 08:25:26;;;;;;;3.73;3.43;;;12.30;99.90;13.90;96351.00;;;;4980570;28;20206;-85
2022/05/30 08:28:16;;;;;;;3.33;3.03;;;12.50;99.90;14.20;96357.00;;;;4986963;28;20211;-85
2022/05/30 08:31:05;;;;;;;2.93;2.43;;;12.60;99.90;14.10;96357.00;;;;4984027;28;20594;-84
2022/05/30 08:33:54;;;;;;;4.30;2.30;;;12.70;99.90;14.00;96361.00;;;;4989726;28;20599;-85
2022/05/30 08:36:44;;;;;;;4.07;2.67;;;12.50;99.90;14.00;96367.00;;;;4989600;28;20222;-85
2022/05/30 08:42:40;;;;;;;3.57;2.77;;;12.20;99.90;14.50;96351.00;;;;4988250;28;20209;-85
2022/05/30 08:45:29;;;;;;;3.63;2.73;;;12.80;99.90;14.50;96357.00;;;;4989424;28;20218;-85
2022/05/30 08:48:37;;;;;;;3.50;3.20;;;12.80;99.90;14.70;96355.00;;;;4986766;28;20203;-85
2022/05/30 08:52:25;;;;;;;4.63;2.80;;;13.00;99.90;15.20;96356.00;;;;4980481;28;20597;-86
2022/05/30 08:55:28;;;;;;;2.73;2.53;;;13.30;99.90;15.50;96352.00;;;;4963395;28;20709;-86
2022/05/30 08:58:37;;;;;;;3.50;3.17;;;13.50;99.90;16.00;96358.00;;;;4985025;28;20206;-86
2022/05/30 09:01:32;;;;;;;2.80;2.60;;;13.80;99.90;16.40;96360.00;;;;4989152;28;20223;-86
2022/05/30 09:04:27;;;;;;;3.07;2.77;;;14.20;99.90;16.40;96361.00;;;;4989510;28;20215;-86
2022/05/30 09:07:20;;;;;;;3.53;2.43;;;14.50;99.90;16.50;96365.00;;;;4987948;28;20584;-86
2022/05/30 09:10:14;;;;;;;2.70;2.50;;;14.60;99.90;16.50;96358.00;;;;4986212;28;20211;-86
2022/05/30 09:13:14;;;;;;;4.77;2.40;;;14.50;99.90;15.90;96358.00;;;;4991014;28;20205;-86
2022/05/30 09:16:16;;;;;;;3.93;2.57;;;14.80;99.90;15.20;96351.00;;;;4987051;28;20289;-87
2022/05/30 09:19:10;;;;;;;2.50;2.30;;;14.50;99.90;15.40;96358.00;;;;4987164;28;20576;-86
2022/05/30 09:22:01;;;;;;;4.00;2.37;;;14.40;99.90;15.90;96365.00;;;;4989266;28;20219;-86
2022/05/30 09:27:53;;;;;;;1.67;1.43;;;14.60;99.90;16.40;96349.00;;;;4980339;28;20210;-86
2022/05/30 09:30:54;;;;;;;1.63;1.37;;;14.80;99.90;17.10;96350.00;;;;4985613;28;20598;-86
2022/05/30 09:33:46;;;;;;;4.23;1.63;;;14.90;99.90;17.80;96345.00;;;;4990234;28;20229;-86
2022/05/30 09:36:49;;;;;;;2.00;1.23;;;15.40;99.90;17.80;96348.00;;;;4988532;28;20226;-86
2022/05/30 09:39:48;;;;;;;1.87;1.27;;;15.80;99.90;18.50;96349.00;;;;4988611;28;20256;-86
2022/05/30 09:42:49;;;;;;;5.63;1.77;;;16.10;99.90;17.90;96350.00;;;;4980342;28;20326;-87
2022/05/30 09:45:38;;;;;;;1.87;1.50;;;16.50;99.90;17.60;96361.00;;;;4990563;28;20260;-86
2022/05/30 09:48:29;;;;;;;1.20;1.10;;;16.40;99.90;18.30;96324.00;;;;4987242;28;20670;-85
2022/05/30 09:51:32;;;;;;;1.80;1.43;;;16.60;99.90;19.00;96328.00;;;;4987639;28;20234;-85
2022/05/30 09:54:34;;;;;;;1.50;1.40;;;17.00;99.90;18.70;96316.00;;;;4990832;28;20584;-87
2022/05/30 09:57:28;;;;;;;1.40;1.30;;;17.20;99.90;18.80;96363.00;;;;4996716;28;20230;-86
2022/05/30 10:00:23;;;;;;;4.90;1.33;;;17.40;99.90;18.70;96377.00;;;;5007896;28;20207;-86
2022/05/30 10:03:34;;;;;;;1.70;1.27;;;17.40;99.90;16.60;96359.00;;;;5007093;28;20215;-85
2022/05/30 10:06:25;;;;;;;2.23;1.43;;;16.80;99.70;16.60;96368.00;;;;4993373;28;20253;-85
2022/05/30 10:09:23;;;;;;;0.93;0.93;;;16.50;99.90;17.20;96375.00;;;;4993118;28;20234;-85
2022/05/30 10:12:12;;;;;;;1.07;1.00;;;16.20;99.90;18.00;96384.00;;;;4991256;28;20685;-84
2022/05/30 10:15:01;;;;;;;6.73;1.30;;;16.20;99.90;18.30;96383.00;;;;4993349;28;20289;-85
2022/05/30 10:17:52;;;;;;;2.30;1.60;;;16.40;99.90;18.80;96360.00;;;;4987584;28;20207;-85
2022/05/30 10:20:52;;;;;;;1.23;1.03;;;16.60;99.90;19.30;96380.00;;;;4990880;28;20226;-85
2022/05/30 10:30:36;;;;;;;1.50;1.40;;;17.40;97.10;19.20;96358.00;;;;4986767;28;20206;-86
2022/05/30 10:33:44;;;;;;;1.90;1.30;;;17.80;99.40;18.90;96354.00;;;;4992772;28;20211;-86
2022/05/30 10:36:46;;;;;;;4.73;1.50;;;17.50;95.00;20.10;96356.00;;;;4991740;28;20237;-85
2022/05/30 10:40:03;;;;;;;2.30;1.33;;;17.90;97.50;20.70;96349.00;;;;4990074;28;20215;-86
2022/05/30 10:42:59;;;;;;;1.23;1.10;;;18.20;98.10;20.60;96345.00;;;;4985322;28;20209;-86
2022/05/30 10:45:57;;;;;;;2.40;1.10;;;18.60;96.30;20.50;96351.00;;;;4990763;28;20203;-85
2022/05/30 10:48:57;;;;;;;1.53;1.43;;;18.80;91.90;20.10;96363.00;;;;4991096;28;20203;-85
2022/05/30 10:51:55;;;;;;;1.00;1.00;;;18.90;90.90;20.20;96363.00;;;;4986300;28;20230;-85
2022/05/30 10:54:50;;;;;;;1.17;1.03;;;18.80;91.90;20.60;96360.00;;;;4991348;28;20344;-86
2022/05/30 10:57:44;;;;;;;1.77;1.40;;;18.90;91.10;20.60;96333.00;;;;4991391;28;20241;-86
2022/05/30 11:00:37;;;;;;;1.50;1.40;;;18.90;91.70;20.40;96346.00;;;;4979449;28;20301;-85
2022/05/30 11:03:31;;;;;;;1.57;0.90;;;18.90;88.30;21.10;96347.00;;;;4991483;28;20241;-86
2022/05/30 11:06:33;;;;;;;1.10;0.80;;;19.00;85.20;20.00;96363.00;;;;4990783;28;20233;-85
2022/05/30 11:09:34;;;;;;;1.30;0.90;;;19.40;82.20;21.20;96357.00;;;;4989568;28;20276;-86
2022/05/30 11:12:31;;;;;;;2.90;0.83;;;19.20;84.50;21.50;96356.00;;;;4989539;28;20230;-86
2022/05/30 11:15:28;;;;;;;1.03;1.00;;;19.70;87.00;22.30;96360.00;;;;4988386;28;20281;-87
2022/05/30 11:18:37;;;;;;;1.00;0.90;;;19.80;88.60;21.80;96322.00;;;;4991291;28;20198;-86
2022/05/30 11:21:34;;;;;;;1.30;1.20;;;20.10;82.90;22.00;96348.00;;;;4991118;28;20226;-86
2022/05/30 11:24:24;;;;;;;1.07;0.90;;;20.30;83.60;22.50;96327.00;;;;4989656;28;20214;-86
2022/05/30 11:27:30;;;;;;;0.80;0.80;;;20.70;84.70;23.90;96310.00;;;;4989153;28;20225;-86
2022/05/30 11:30:52;;;;;;;0.90;0.60;;;21.30;84.10;24.20;96315.00;;;;4987272;28;20234;-86
2022/05/30 11:34:26;;;;;;;1.07;0.70;;;22.40;77.10;24.80;96330.00;;;;4968173;28;20695;-87
2022/05/30 11:37:47;;;;;;;2.53;0.93;;;21.30;76.00;24.60;96305.00;;;;4951668;28;20203;-87
2022/05/30 11:40:59;;;;;;;1.70;0.90;;;22.60;69.40;24.40;96360.00;;;;4944360;28;20810;-86
2022/05/30 11:44:14;;;;;;;1.80;0.63;;;22.80;71.80;24.30;96362.00;;;;4987862;28;20199;-88
2022/05/30 11:47:21;;;;;;;1.00;0.90;;;22.90;68.60;23.20;96370.00;;;;4988706;28;20627;-87
2022/05/30 11:50:29;;;;;;;0.90;0.80;;;22.30;69.80;22.60;96344.00;;;;4986817;28;20258;-87
2022/05/30 11:54:02;;;;;;;1.10;1.00;;;22.00;70.00;22.00;96298.00;;;;4986156;28;20211;-87
2022/05/30 11:57:08;;;;;;;1.30;0.93;;;21.70;70.60;23.50;96367.00;;;;4987146;28;20662;-86
2022/05/30 12:00:13;;;;;;;1.60;0.80;;;21.50;73.00;23.90;96371.00;;;;4990583;28;20194;-87
2022/05/30 12:04:14;;;;;;;0.80;0.77;;;21.90;75.10;22.40;96372.00;;;;4992808;28;20199;-88
2022/05/30 12:07:55;;;;;;;0.70;0.70;;;21.70;71.20;21.30;96317.00;;;;4986932;28;20506;-85
2022/05/30 12:11:47;;;;;;;0.87;0.77;;;21.40;67.60;23.60;96368.00;;;;4986999;28;20234;-86
2022/05/30 12:15:24;;;;;;;0.73;0.70;;;22.10;72.40;23.90;96381.00;;;;4940086;28;20641;-86
2022/05/30 12:25:52;;;;;;;0.70;0.60;;;22.30;68.60;23.00;96306.00;;;;4984189;28;20203;-86
2022/05/30 12:28:56;;;;;;;1.23;0.80;;;22.70;65.40;23.60;96390.00;;;;4884830;29;20630;-87
2022/05/30 12:31:46;;;;;;;1.80;0.87;;;22.60;68.20;21.50;96340.00;;;;4890937;29;20720;-87
2022/05/30 12:35:28;;;;;;;0.80;0.70;;;21.60;67.80;21.30;96296.00;;;;4970429;28;20227;-87
2022/05/30 12:38:18;;;;;;;2.20;0.80;;;21.00;64.30;22.30;96303.00;;;;4977143;28;20214;-88
2022/05/30 12:41:20;;;;;;;0.50;0.50;;;21.10;71.80;24.60;96295.00;;;;4983190;28;20268;-88
2022/05/30 12:44:25;;;;;;;0.87;0.87;;;21.60;70.70;24.50;96304.00;;;;4973713;28;20202;-87
2022/05/30 12:47:29;;;;;;;1.00;0.80;;;22.40;71.00;25.50;96316.00;;;;4990309;28;20222;-88
2022/05/30 12:50:59;;;;;;;1.03;0.60;;;23.20;70.10;26.20;96315.00;;;;4984854;28;20332;-88
2022/05/30 12:54:46;;;;;;;2.60;1.20;;;23.40;66.40;25.50;96381.00;;;;4979670;28;20377;-88
2022/05/30 12:57:41;;;;;;;0.90;0.70;;;23.70;66.00;24.40;96319.00;;;;4913746;28;20213;-88
2022/05/30 13:00:55;;;;;;;1.87;0.83;;;24.40;64.80;23.30;96342.00;;;;4978032;28;20846;-87
2022/05/30 13:04:03;;;;;;;1.00;0.90;;;22.80;64.00;25.00;96323.00;;;;4978189;28;20260;-88
2022/05/30 13:07:11;;;;;;;1.13;0.90;;;22.80;67.70;25.80;96323.00;;;;4988180;28;20649;-88
2022/05/30 13:10:10;;;;;;;0.90;0.67;;;23.40;68.20;26.40;96327.00;;;;4988424;28;20593;-88
2022/05/30 13:13:10;;;;;;;0.80;0.73;;;23.40;66.30;26.90;96336.00;;;;4990972;28;20504;-87
2022/05/30 13:16:05;;;;;;;2.20;0.80;;;24.60;66.70;26.70;96326.00;;;;4990859;28;20596;-88
2022/05/30 13:18:56;;;;;;;1.57;1.00;;;24.40;63.00;27.90;96330.00;;;;4990422;28;20250;-87
2022/05/30 13:21:49;;;;;;;2.17;0.90;;;24.60;75.80;28.50;96334.00;;;;4987164;28;20798;-87
2022/05/30 13:24:40;;;;;;;2.03;1.83;;;25.10;61.00;28.10;96334.00;;;;4991058;28;20760;-88
2022/05/30 13:27:30;;;;;;;1.07;0.87;;;26.10;60.60;26.00;96332.00;;;;4990562;28;20561;-87
2022/05/30 13:30:25;;;;;;;2.23;1.07;;;25.50;56.40;26.30;96405.00;;;;4992664;28;20215;-87
2022/05/30 13:33:21;;;;;;;0.90;0.90;;;25.30;57.70;23.40;96403.00;;;;4990991;28;20215;-86
2022/05/30 13:36:20;;;;;;;2.77;1.40;;;24.30;56.60;22.50;96401.00;;;;4995130;28;20214;-86
2022/05/30 13:39:12;;;;;;;1.33;1.23;;;23.20;58.80;22.70;96324.00;;;;4982512;28;20210;-87